Time;durP1;ratioP1;P1;durP2;ratioP2;P2;SDS_P1;SDS_P2;PMS_P1;PMS_P2;Temp;Humidity;BMP_temperature;BMP_pressure;BME280_temperature;BME280_humidity;BME280_pressure;Samples;Min_cycle;Max_cycle;Signal;HPM_P1;HPM_P2
2024/01/19 00:01:12;;;;;;;26.43;16.90;;;;;;;-0.70;100.00;151192.66;5070506;28;20437;-77
2024/01/19 00:03:39;;;;;;;26.90;15.73;;;;;;;-0.72;100.00;151187.53;5083806;28;20453;-77
2024/01/19 00:06:06;;;;;;;25.17;16.50;;;;;;;-0.73;100.00;151186.25;5085941;28;20900;-77
2024/01/19 00:08:32;;;;;;;27.97;17.77;;;;;;;-0.72;100.00;151187.53;5086256;28;20468;-77
2024/01/19 00:11:00;;;;;;;23.07;15.27;;;;;;;-0.72;100.00;151187.53;5069125;28;20453;-78
2024/01/19 00:13:26;;;;;;;28.47;17.37;;;;;;;-0.65;100.00;151205.47;5074902;28;20987;-77
2024/01/19 00:15:55;;;;;;;24.10;15.40;;;;;;;-0.70;100.00;151193.94;5091715;28;21179;-77
2024/01/19 00:18:22;;;;;;;23.20;14.40;;;;;;;-0.72;100.00;151188.81;5086519;28;21037;-78
2024/01/19 00:20:49;;;;;;;29.40;16.57;;;;;;;-0.71;100.00;151190.06;5083865;28;20449;-78
2024/01/19 00:23:15;;;;;;;22.83;15.53;;;;;;;-0.69;100.00;151195.25;5086194;28;20499;-77
2024/01/19 00:25:42;;;;;;;24.20;15.57;;;;;;;-0.67;100.00;151201.66;5079583;28;20494;-78
2024/01/19 00:28:10;;;;;;;28.13;17.00;;;;;;;-0.60;100.00;151218.28;5085797;28;20452;-78
2024/01/19 00:30:36;;;;;;;23.80;14.97;;;;;;;-0.70;100.00;151193.94;5090894;28;20441;-78
2024/01/19 00:33:03;;;;;;;25.50;14.63;;;;;;;-0.67;100.00;151200.34;5084820;28;20473;-78
2024/01/19 00:35:30;;;;;;;26.70;16.40;;;;;;;-0.57;100.00;151226.00;5087017;28;20444;-77
2024/01/19 00:37:56;;;;;;;22.87;15.63;;;;;;;-0.53;100.00;151235.00;5085392;28;20453;-77
2024/01/19 00:40:23;;;;;;;27.60;16.20;;;;;;;-0.48;100.00;151249.09;5069620;28;21012;-77
2024/01/19 00:42:50;;;;;;;24.30;15.03;;;;;;;-0.49;100.00;151246.53;5083701;28;20441;-78
2024/01/19 00:45:17;;;;;;;27.90;16.17;;;;;;;-0.51;100.00;151241.41;5083748;28;20485;-77
2024/01/19 00:47:44;;;;;;;26.93;15.87;;;;;;;-0.58;100.00;151223.41;5065715;28;21046;-77
2024/01/19 00:50:11;;;;;;;28.27;16.73;;;;;;;-0.62;100.00;151213.19;5086634;28;20511;-77
2024/01/19 00:52:37;;;;;;;24.90;15.77;;;;;;;-0.65;100.00;151206.75;5084169;28;20473;-77
2024/01/19 00:55:05;;;;;;;21.67;14.30;;;;;;;-0.62;100.00;151214.47;5069265;28;20523;-77
2024/01/19 00:57:31;;;;;;;26.10;15.17;;;;;;;-0.61;100.00;151215.75;5084213;28;20457;-77
2024/01/19 00:59:58;;;;;;;22.80;14.70;;;;;;;-0.65;100.00;151206.75;5085680;28;20476;-77
2024/01/19 01:02:27;;;;;;;27.37;16.07;;;;;;;-0.65;100.00;151206.75;5084166;28;20475;-77
2024/01/19 01:04:53;;;;;;;25.70;16.10;;;;;;;-0.63;100.00;151210.59;5080941;28;20585;-77
2024/01/19 01:07:20;;;;;;;26.20;15.37;;;;;;;-0.59;100.00;151219.59;5081592;28;20993;-77
2024/01/19 01:09:46;;;;;;;24.77;15.57;;;;;;;-0.60;100.00;151218.28;5091822;28;20445;-77
2024/01/19 01:12:13;;;;;;;30.80;15.90;;;;;;;-0.53;100.00;151236.22;5084108;28;20460;-77
2024/01/19 01:14:40;;;;;;;23.00;15.10;;;;;;;-0.53;100.00;151236.22;5081319;28;20525;-77
2024/01/19 01:17:07;;;;;;;22.47;15.30;;;;;;;-0.57;100.00;151226.00;5081015;28;20454;-77
2024/01/19 01:19:34;;;;;;;22.33;14.87;;;;;;;-0.61;100.00;151217.00;5085999;28;20437;-77
2024/01/19 01:22:02;;;;;;;27.00;14.37;;;;;;;-0.66;100.00;151202.88;5084783;28;20457;-76
2024/01/19 01:24:28;;;;;;;22.57;14.40;;;;;;;-0.63;100.00;151211.88;5081905;28;20516;-77
2024/01/19 01:26:55;;;;;;;23.87;14.27;;;;;;;-0.57;100.00;151226.00;5083966;28;20448;-77
2024/01/19 01:29:21;;;;;;;23.47;15.10;;;;;;;-0.57;100.00;151226.00;5075782;28;20533;-76
2024/01/19 01:31:48;;;;;;;20.10;13.07;;;;;;;-0.53;100.00;151236.22;5088816;28;20449;-77
2024/01/19 01:34:15;;;;;;;21.17;13.47;;;;;;;-0.54;100.00;151233.69;5083112;28;20557;-77
2024/01/19 01:36:43;;;;;;;23.20;14.63;;;;;;;-0.55;100.00;151229.81;5086833;28;20804;-77
2024/01/19 01:39:11;;;;;;;24.00;14.90;;;;;;;-0.54;100.00;151233.69;5083384;28;20971;-77
2024/01/19 01:41:37;;;;;;;24.80;15.17;;;;;;;-0.53;100.00;151235.00;5080616;28;20438;-76
2024/01/19 01:44:05;;;;;;;25.93;15.07;;;;;;;-0.53;100.00;151236.22;5106424;27;20479;-76
2024/01/19 01:46:31;;;;;;;25.63;15.70;;;;;;;-0.43;100.00;151260.63;5084477;28;20439;-77
2024/01/19 01:48:58;;;;;;;21.43;13.87;;;;;;;-0.45;100.00;151255.50;5085690;28;20464;-76
2024/01/19 01:51:24;;;;;;;22.80;14.97;;;;;;;-0.48;100.00;151249.09;5086313;28;20445;-77
2024/01/19 01:53:52;;;;;;;26.90;15.87;;;;;;;-0.49;100.00;151246.53;5072398;28;20581;-77
2024/01/19 01:56:19;;;;;;;26.07;14.57;;;;;;;-0.53;100.00;151236.22;5091135;28;20444;-76
2024/01/19 01:58:45;;;;;;;22.87;15.57;;;;;;;-0.54;100.00;151233.69;5063927;28;20824;-77
2024/01/19 02:01:12;;;;;;;22.27;14.77;;;;;;;-0.57;100.00;151226.00;5085182;28;20464;-76
2024/01/19 02:03:40;;;;;;;25.27;15.77;;;;;;;-0.62;100.00;151213.19;5082708;28;20457;-76
2024/01/19 02:06:07;;;;;;;21.30;16.07;;;;;;;-0.57;100.00;151226.00;5088526;28;20474;-77
2024/01/19 02:08:33;;;;;;;24.47;15.70;;;;;;;-0.62;100.00;151213.19;5083375;28;20452;-77
2024/01/19 02:11:01;;;;;;;26.87;14.50;;;;;;;-0.69;100.00;151195.25;5084403;28;20441;-77
2024/01/19 02:13:28;;;;;;;28.87;15.50;;;;;;;-0.62;100.00;151213.19;5080653;28;20472;-77
2024/01/19 02:15:59;;;;;;;28.30;16.57;;;;;;;-0.63;100.00;151211.88;5075469;28;20449;-77
2024/01/19 02:18:26;;;;;;;23.27;15.63;;;;;;;-0.61;100.00;151215.75;5079800;28;20776;-76
2024/01/19 02:20:52;;;;;;;27.93;15.43;;;;;;;-0.59;100.00;151220.88;5080916;28;20538;-77
2024/01/19 02:23:19;;;;;;;20.60;15.10;;;;;;;-0.58;100.00;151223.41;5084009;28;20440;-77
2024/01/19 02:25:47;;;;;;;26.83;17.07;;;;;;;-0.59;100.00;151220.88;5082970;28;20472;-77
2024/01/19 02:28:14;;;;;;;23.60;15.43;;;;;;;-0.68;100.00;151197.78;5092628;28;21019;-77
2024/01/19 02:30:41;;;;;;;24.33;14.70;;;;;;;-0.70;100.00;151193.94;5086068;28;20437;-77
2024/01/19 02:33:07;;;;;;;21.37;14.63;;;;;;;-0.73;100.00;151186.25;5082140;28;20467;-76
2024/01/19 02:35:34;;;;;;;22.20;15.63;;;;;;;-0.70;100.00;151192.66;5078369;28;20457;-77
2024/01/19 02:38:00;;;;;;;23.63;15.73;;;;;;;-0.72;100.00;151188.81;5078543;28;20481;-77
2024/01/19 02:40:27;;;;;;;24.77;14.83;;;;;;;-0.71;100.00;151190.06;5087054;28;20533;-77
2024/01/19 02:42:55;;;;;;;24.90;15.00;;;;;;;-0.75;100.00;151179.84;5082048;28;20801;-77
2024/01/19 02:45:21;;;;;;;21.83;15.03;;;;;;;-0.72;100.00;151188.81;5088590;28;20875;-77
2024/01/19 02:47:48;;;;;;;28.73;18.10;;;;;;;-0.63;100.00;151210.59;5088742;28;20525;-76
2024/01/19 02:50:15;;;;;;;23.73;13.60;;;;;;;-0.66;100.00;151202.88;5088999;28;20448;-76
2024/01/19 02:52:41;;;;;;;26.60;15.47;;;;;;;-0.62;100.00;151213.19;5080941;28;21424;-77
2024/01/19 02:55:08;;;;;;;27.77;15.80;;;;;;;-0.67;100.00;151200.34;5085012;28;20465;-77
2024/01/19 02:57:35;;;;;;;24.27;15.20;;;;;;;-0.62;100.00;151214.47;5085884;28;20437;-77
2024/01/19 03:00:05;;;;;;;25.60;15.20;;;;;;;-0.61;100.00;151215.75;5087282;28;20445;-76
2024/01/19 03:02:31;;;;;;;26.40;14.20;;;;;;;-0.62;100.00;151213.19;5091493;28;20835;-76
2024/01/19 03:04:58;;;;;;;26.17;16.20;;;;;;;-0.64;100.00;151208.06;5080036;28;20450;-77
2024/01/19 03:07:24;;;;;;;21.80;13.93;;;;;;;-0.61;100.00;151215.75;5093017;28;20455;-77
2024/01/19 03:09:51;;;;;;;22.50;15.67;;;;;;;-0.67;100.00;151200.34;5094318;28;20463;-77
2024/01/19 03:12:18;;;;;;;23.70;15.23;;;;;;;-0.67;100.00;151200.34;5080213;28;20468;-76
2024/01/19 03:14:44;;;;;;;20.20;14.67;;;;;;;-0.66;100.00;151202.88;5076372;28;20545;-76
2024/01/19 03:17:13;;;;;;;25.03;14.87;;;;;;;-0.66;100.00;151202.88;5088764;28;20460;-76
2024/01/19 03:19:40;;;;;;;27.50;15.77;;;;;;;-0.66;100.00;151202.88;5088044;28;20447;-76
2024/01/19 03:22:06;;;;;;;19.33;13.97;;;;;;;-0.69;100.00;151196.47;5086539;28;20671;-77
2024/01/19 03:24:33;;;;;;;24.77;14.80;;;;;;;-0.76;100.00;151178.53;5087048;28;20433;-76
2024/01/19 03:26:59;;;;;;;27.20;16.37;;;;;;;-0.83;100.00;151159.31;5094662;28;20456;-76
2024/01/19 03:29:28;;;;;;;25.83;16.37;;;;;;;-0.89;100.00;151143.91;5081537;28;20506;-77
2024/01/19 03:31:55;;;;;;;25.17;15.40;;;;;;;-0.92;100.00;151136.22;5083701;28;20449;-77
2024/01/19 03:34:23;;;;;;;27.80;14.70;;;;;;;-0.93;100.00;151133.69;5085428;28;20974;-77
2024/01/19 03:36:50;;;;;;;28.30;15.33;;;;;;;-0.99;100.00;151118.28;5092318;28;20843;-76
2024/01/19 03:39:17;;;;;;;22.40;14.90;;;;;;;-1.03;100.00;151109.28;5088401;28;20585;-77
2024/01/19 03:41:43;;;;;;;23.03;13.73;;;;;;;-1.06;100.00;151101.59;5086260;28;20457;-76
2024/01/19 03:44:10;;;;;;;22.93;14.77;;;;;;;-1.03;100.00;151108.06;5092645;28;20433;-76
2024/01/19 03:46:36;;;;;;;23.13;14.83;;;;;;;-1.06;100.00;151100.34;5084878;28;20456;-77
2024/01/19 03:49:08;;;;;;;21.30;14.00;;;;;;;-1.11;100.00;151088.78;5083569;28;20440;-77
2024/01/19 03:51:36;;;;;;;22.73;13.57;;;;;;;-1.09;100.00;151092.66;5085610;28;20437;-77
2024/01/19 03:54:03;;;;;;;26.13;14.23;;;;;;;-1.04;100.00;151105.47;5085106;28;20497;-77
2024/01/19 03:56:29;;;;;;;21.70;15.00;;;;;;;-1.05;100.00;151104.19;5087234;28;20463;-77
2024/01/19 03:58:56;;;;;;;23.70;14.27;;;;;;;-1.03;100.00;151108.06;5088682;28;20433;-77
2024/01/19 04:01:23;;;;;;;18.73;13.20;;;;;;;-0.95;100.00;151128.50;5088473;28;21175;-77
2024/01/19 04:03:49;;;;;;;18.67;13.13;;;;;;;-0.98;100.00;151120.88;5079804;28;20446;-77
2024/01/19 04:06:16;;;;;;;26.27;16.90;;;;;;;-0.97;100.00;151123.41;5082874;28;20457;-77
2024/01/19 04:08:44;;;;;;;27.30;14.63;;;;;;;-0.93;100.00;151133.69;5089461;28;20492;-77
2024/01/19 04:11:10;;;;;;;21.87;13.60;;;;;;;-0.91;100.00;151138.78;5086494;28;20652;-77
2024/01/19 04:13:37;;;;;;;27.90;15.63;;;;;;;-0.87;100.00;151149.03;5082181;28;20461;-77
2024/01/19 04:16:05;;;;;;;23.10;14.40;;;;;;;-0.81;100.00;151165.72;5089029;28;20563;-77
2024/01/19 04:18:31;;;;;;;22.57;14.17;;;;;;;-0.78;100.00;151172.13;5087698;28;20448;-77
2024/01/19 04:20:58;;;;;;;21.57;15.10;;;;;;;-0.76;100.00;151177.25;5089774;28;20506;-77
2024/01/19 04:23:24;;;;;;;23.67;13.97;;;;;;;-0.79;100.00;151170.84;5090441;28;20471;-77
2024/01/19 04:25:52;;;;;;;22.30;13.17;;;;;;;-0.80;100.00;151168.31;5084797;28;20510;-77
2024/01/19 04:28:18;;;;;;;24.83;14.70;;;;;;;-0.81;100.00;151164.44;5085733;28;20778;-77
2024/01/19 04:30:45;;;;;;;22.30;15.50;;;;;;;-0.81;100.00;151164.44;5086439;28;20441;-77
2024/01/19 04:33:11;;;;;;;22.50;14.53;;;;;;;-0.82;100.00;151161.91;5070941;28;20445;-77
2024/01/19 04:35:38;;;;;;;22.87;15.67;;;;;;;-0.84;100.00;151158.03;5087949;28;20781;-77
2024/01/19 04:38:04;;;;;;;20.30;12.97;;;;;;;-0.83;100.00;151160.59;5085742;28;20448;-77
2024/01/19 04:40:31;;;;;;;21.63;14.37;;;;;;;-0.80;100.00;151167.00;5088073;28;20468;-77
2024/01/19 04:42:59;;;;;;;27.80;15.10;;;;;;;-0.85;100.00;151154.19;5087401;28;20445;-77
2024/01/19 04:45:26;;;;;;;20.83;14.50;;;;;;;-0.89;100.00;151145.22;5083329;28;20440;-77
2024/01/19 04:47:52;;;;;;;23.10;15.67;;;;;;;-0.89;100.00;151143.91;5084821;28;20449;-77
2024/01/19 04:50:19;;;;;;;21.10;13.33;;;;;;;-0.86;100.00;151152.91;5085044;28;20786;-77
2024/01/19 04:52:46;;;;;;;20.00;13.63;;;;;;;-0.94;100.00;151131.09;5082214;28;20491;-77
2024/01/19 04:55:12;;;;;;;23.07;14.37;;;;;;;-0.98;100.00;151120.88;5068395;28;20787;-77
2024/01/19 04:57:39;;;;;;;19.23;12.63;;;;;;;-0.90;100.00;151142.63;5084605;28;20453;-77
2024/01/19 05:00:08;;;;;;;18.83;12.90;;;;;;;-0.87;100.00;151149.03;5085438;28;20797;-77
2024/01/19 05:02:35;;;;;;;20.40;13.33;;;;;;;-0.90;100.00;151142.63;5079046;28;21292;-77
2024/01/19 05:05:01;;;;;;;21.13;14.20;;;;;;;-0.88;100.00;151146.50;5078921;28;20834;-77
2024/01/19 05:07:31;;;;;;;21.63;14.37;;;;;;;-0.80;100.00;151167.00;5079167;28;21001;-77
2024/01/19 05:09:57;;;;;;;21.53;13.80;;;;;;;-0.86;100.00;151151.63;5098914;28;20456;-77
2024/01/19 05:12:24;;;;;;;21.47;13.83;;;;;;;-0.90;100.00;151141.38;5084512;28;20537;-77
2024/01/19 05:14:50;;;;;;;21.30;14.67;;;;;;;-0.88;100.00;151146.50;5059799;28;20481;-77
2024/01/19 05:17:19;;;;;;;18.43;12.87;;;;;;;-0.91;100.00;151140.09;5079631;28;20515;-77
2024/01/19 05:19:45;;;;;;;22.47;14.20;;;;;;;-0.92;100.00;151137.50;5084075;28;20445;-77
2024/01/19 05:22:12;;;;;;;18.80;14.43;;;;;;;-0.95;100.00;151128.50;5079140;28;20546;-77
2024/01/19 05:24:40;;;;;;;23.00;13.93;;;;;;;-0.94;100.00;151131.09;5083858;28;20437;-77
2024/01/19 05:27:07;;;;;;;20.30;13.23;;;;;;;-0.96;100.00;151125.97;5081280;28;20518;-77
2024/01/19 05:29:34;;;;;;;21.37;13.23;;;;;;;-0.92;100.00;151136.22;5085468;28;20445;-77
2024/01/19 05:32:00;;;;;;;20.97;13.20;;;;;;;-0.91;100.00;151138.78;5081413;28;20504;-77
2024/01/19 05:34:28;;;;;;;21.33;13.97;;;;;;;-0.90;100.00;151141.38;5084855;28;20473;-77
2024/01/19 05:36:55;;;;;;;22.07;13.80;;;;;;;-0.86;100.00;151151.63;5086900;28;20441;-77
2024/01/19 05:39:21;;;;;;;22.33;14.33;;;;;;;-0.91;100.00;151140.09;5077974;28;20457;-77
2024/01/19 05:41:48;;;;;;;23.73;13.80;;;;;;;-0.95;100.00;151129.81;5082823;28;20468;-77
2024/01/19 05:44:15;;;;;;;24.20;13.13;;;;;;;-0.99;100.00;151118.28;5085871;28;20535;-77
2024/01/19 05:46:42;;;;;;;22.03;14.50;;;;;;;-0.99;100.00;151118.28;5059315;28;20438;-77
2024/01/19 05:49:08;;;;;;;21.50;13.93;;;;;;;-0.99;100.00;151119.56;5078278;28;20453;-77
2024/01/19 05:51:36;;;;;;;25.00;13.60;;;;;;;-0.97;100.00;151124.69;5082149;28;20438;-77
2024/01/19 05:54:03;;;;;;;20.30;15.60;;;;;;;-1.01;100.00;151114.47;5077690;28;20465;-76
2024/01/19 05:56:29;;;;;;;20.47;13.67;;;;;;;-1.02;100.00;151111.88;5080672;28;20905;-76
2024/01/19 05:58:56;;;;;;;18.67;13.67;;;;;;;-1.00;100.00;151115.69;5076897;28;20819;-77
2024/01/19 06:01:23;;;;;;;24.23;15.50;;;;;;;-0.97;100.00;151124.69;5076790;28;20453;-77
2024/01/19 06:03:49;;;;;;;21.87;14.30;;;;;;;-1.01;100.00;151114.47;5084048;28;20441;-77
2024/01/19 06:06:16;;;;;;;26.47;15.83;;;;;;;-1.02;100.00;151110.59;5073738;28;20454;-78
2024/01/19 06:08:44;;;;;;;27.30;15.50;;;;;;;-1.05;100.00;151102.88;5073931;28;20843;-78
2024/01/19 06:11:10;;;;;;;23.47;14.90;;;;;;;-1.04;100.00;151106.75;5075519;28;20541;-78
2024/01/19 06:13:39;;;;;;;19.37;13.50;;;;;;;-1.00;100.00;151115.69;5058155;28;20466;-78
2024/01/19 06:16:06;;;;;;;27.13;14.50;;;;;;;-0.94;100.00;151131.09;5079966;28;20459;-78
2024/01/19 06:18:34;;;;;;;22.03;15.10;;;;;;;-0.90;100.00;151141.38;5076627;28;20462;-78
2024/01/19 06:21:01;;;;;;;26.53;15.80;;;;;;;-0.83;100.00;151159.31;5078229;28;20487;-78
2024/01/19 06:23:27;;;;;;;18.90;13.30;;;;;;;-0.78;100.00;151173.44;5078376;28;20568;-78
2024/01/19 06:25:55;;;;;;;22.30;13.90;;;;;;;-0.77;100.00;151174.72;5079484;28;20456;-78
2024/01/19 06:28:22;;;;;;;25.23;14.50;;;;;;;-0.88;100.00;151147.78;5078406;28;20453;-78
2024/01/19 06:30:48;;;;;;;20.93;14.00;;;;;;;-0.92;100.00;151136.22;5078496;28;20466;-78
2024/01/19 06:33:15;;;;;;;23.50;15.00;;;;;;;-0.98;100.00;151122.09;5075367;28;20826;-78
2024/01/19 06:35:41;;;;;;;22.90;14.73;;;;;;;-1.06;100.00;151100.34;5080653;28;20477;-78
2024/01/19 06:38:08;;;;;;;23.90;15.33;;;;;;;-1.09;100.00;151092.66;5078131;28;20453;-78
2024/01/19 06:40:35;;;;;;;21.40;14.27;;;;;;;-1.02;100.00;151110.59;5078591;28;20450;-78
2024/01/19 06:43:03;;;;;;;24.10;14.57;;;;;;;-0.95;100.00;151128.50;5078163;28;20939;-78
2024/01/19 06:45:32;;;;;;;31.40;15.23;;;;;;;-0.94;100.00;151131.09;5074954;28;20471;-77
2024/01/19 06:48:02;;;;;;;19.57;13.40;;;;;;;-0.98;100.00;151120.88;5076684;28;20522;-77
2024/01/19 06:50:33;;;;;;;21.53;13.40;;;;;;;-0.98;100.00;151120.88;5075240;28;20445;-77
2024/01/19 06:53:00;;;;;;;26.70;14.27;;;;;;;-0.94;100.00;151132.38;5074220;28;20901;-78
2024/01/19 06:55:27;;;;;;;21.40;15.07;;;;;;;-0.99;100.00;151118.28;5074941;28;20468;-77
2024/01/19 06:57:54;;;;;;;18.50;14.30;;;;;;;-0.96;100.00;151125.97;5074951;28;20453;-77
2024/01/19 07:00:22;;;;;;;23.53;15.33;;;;;;;-0.93;100.00;151133.69;5076448;28;21053;-77
2024/01/19 07:02:48;;;;;;;25.07;14.97;;;;;;;-0.95;100.00;151128.50;5078175;28;20457;-77
2024/01/19 07:05:15;;;;;;;24.97;15.37;;;;;;;-1.00;100.00;151117.00;5078238;28;20515;-76
2024/01/19 07:07:41;;;;;;;26.23;15.00;;;;;;;-0.97;100.00;151124.69;5074008;28;20464;-76
2024/01/19 07:10:08;;;;;;;20.10;14.60;;;;;;;-0.89;100.00;151143.91;5078729;28;20456;-75
2024/01/19 07:12:35;;;;;;;20.17;15.07;;;;;;;-0.95;100.00;151128.50;5075399;28;21053;-76
2024/01/19 07:15:01;;;;;;;24.50;16.53;;;;;;;-0.97;100.00;151124.69;5076454;28;20939;-77
2024/01/19 07:17:29;;;;;;;23.23;15.90;;;;;;;-1.05;100.00;151104.19;5078011;28;20461;-77
2024/01/19 07:19:57;;;;;;;24.53;15.97;;;;;;;-1.09;100.00;151092.66;5075779;28;20457;-77
2024/01/19 07:22:23;;;;;;;22.77;15.30;;;;;;;-1.13;100.00;151082.38;5076586;28;20990;-77
2024/01/19 07:24:50;;;;;;;21.13;14.77;;;;;;;-1.14;100.00;151081.13;5078905;28;20453;-77
2024/01/19 07:27:17;;;;;;;21.37;13.40;;;;;;;-1.14;100.00;151079.84;5075603;28;20453;-77
2024/01/19 07:29:43;;;;;;;22.00;15.60;;;;;;;-1.08;100.00;151095.19;5078044;28;20458;-78
2024/01/19 07:32:10;;;;;;;26.33;15.67;;;;;;;-1.08;100.00;151096.47;5075537;28;20793;-77
2024/01/19 07:34:38;;;;;;;24.23;16.70;;;;;;;-1.02;100.00;151110.59;5077748;28;20458;-78
2024/01/19 07:37:04;;;;;;;25.10;15.87;;;;;;;-0.97;100.00;151123.41;5078851;28;20832;-78
2024/01/19 07:39:31;;;;;;;27.70;15.93;;;;;;;-1.03;100.00;151108.06;5074686;28;20479;-78
2024/01/19 07:41:57;;;;;;;27.13;15.63;;;;;;;-1.05;100.00;151104.19;5060290;28;20507;-77
2024/01/19 07:44:25;;;;;;;25.73;15.47;;;;;;;-0.99;100.00;151118.28;5076270;28;20819;-78
2024/01/19 07:46:51;;;;;;;23.10;13.77;;;;;;;-1.03;100.00;151108.06;5074062;28;20978;-76
2024/01/19 07:49:20;;;;;;;25.00;15.47;;;;;;;-1.04;100.00;151105.47;5074622;28;20876;-77
2024/01/19 07:51:48;;;;;;;23.53;15.70;;;;;;;-1.01;100.00;151114.47;5075202;28;20458;-77
2024/01/19 07:54:16;;;;;;;25.73;15.10;;;;;;;-1.03;100.00;151108.06;5074922;28;20449;-76
2024/01/19 07:56:45;;;;;;;19.23;13.77;;;;;;;-0.95;100.00;151129.81;5074810;28;20948;-78
2024/01/19 07:59:14;;;;;;;26.87;14.77;;;;;;;-1.01;100.00;151113.16;5075550;28;20792;-78
2024/01/19 08:01:41;;;;;;;27.17;14.90;;;;;;;-1.02;100.00;151110.59;5076482;28;20449;-77
2024/01/19 08:04:08;;;;;;;26.97;16.10;;;;;;;-1.03;100.00;151108.06;5076834;28;20481;-78
2024/01/19 08:06:34;;;;;;;26.17;15.97;;;;;;;-0.99;100.00;151119.56;5077400;28;20452;-77
2024/01/19 08:09:02;;;;;;;24.70;15.87;;;;;;;-1.04;100.00;151105.47;5074308;28;20468;-77
2024/01/19 08:15:43;;;;;;;28.73;15.60;;;;;;;-0.80;100.00;151168.31;5078095;28;20480;-77
2024/01/19 08:18:10;;;;;;;23.20;14.90;;;;;;;-0.73;100.00;151184.94;5066837;28;20443;-77
2024/01/19 08:20:36;;;;;;;27.50;16.30;;;;;;;-0.68;100.00;151197.78;5075407;28;20453;-77
2024/01/19 08:23:03;;;;;;;27.70;18.00;;;;;;;-0.55;100.00;151231.13;5075357;28;20899;-77
2024/01/19 08:25:31;;;;;;;33.00;17.20;;;;;;;-0.51;100.00;151240.09;5078193;28;20445;-77
2024/01/19 08:27:58;;;;;;;28.27;18.10;;;;;;;-0.54;100.00;151233.69;5075965;28;20445;-77
2024/01/19 08:30:24;;;;;;;29.07;18.13;;;;;;;-0.87;100.00;151149.03;5073623;28;21018;-77
2024/01/19 08:32:51;;;;;;;35.00;19.97;;;;;;;-0.84;100.00;151156.72;5075782;28;20450;-77
2024/01/19 08:35:17;;;;;;;30.57;20.07;;;;;;;-0.85;100.00;151154.19;5056923;28;21050;-78
2024/01/19 08:37:44;;;;;;;30.03;19.10;;;;;;;-0.91;100.00;151138.78;5074662;28;20456;-77
2024/01/19 08:40:12;;;;;;;33.03;18.73;;;;;;;-0.92;100.00;151136.22;5071183;28;20964;-78
2024/01/19 08:42:40;;;;;;;31.30;19.53;;;;;;;-0.90;100.00;151141.38;5076035;28;20450;-77
2024/01/19 08:45:07;;;;;;;23.27;16.30;;;;;;;-0.87;100.00;151150.31;5080706;28;20471;-77
2024/01/19 08:47:35;;;;;;;27.97;18.20;;;;;;;-0.90;100.00;151141.38;5077143;28;20445;-78
2024/01/19 08:50:02;;;;;;;30.27;17.90;;;;;;;-0.86;100.00;151151.63;5074736;28;20544;-78
2024/01/19 08:52:29;;;;;;;25.50;18.13;;;;;;;-0.97;100.00;151123.41;5076380;28;20472;-77
2024/01/19 08:54:55;;;;;;;27.97;17.60;;;;;;;-0.98;100.00;151122.09;5076225;28;20483;-78
2024/01/19 08:57:23;;;;;;;30.93;19.40;;;;;;;-0.97;100.00;151123.41;5074220;28;20477;-78
2024/01/19 08:59:51;;;;;;;27.53;18.13;;;;;;;-0.94;100.00;151132.38;5074456;28;21034;-78
2024/01/19 09:02:17;;;;;;;26.70;18.17;;;;;;;-0.96;100.00;151125.97;5077347;28;20453;-78
2024/01/19 09:04:44;;;;;;;31.00;19.33;;;;;;;-0.96;100.00;151127.28;5074787;28;20967;-77
2024/01/19 09:07:11;;;;;;;30.43;18.80;;;;;;;-0.95;100.00;151129.81;5074770;28;20447;-78
2024/01/19 09:09:37;;;;;;;28.43;18.13;;;;;;;-0.88;100.00;151146.50;5076826;28;20930;-78
2024/01/19 09:12:14;;;;;;;27.20;17.90;;;;;;;-0.80;100.00;151167.00;5076341;28;20476;-77
2024/01/19 09:14:43;;;;;;;26.70;18.27;;;;;;;-0.73;100.00;151184.94;5050979;28;20468;-77
2024/01/19 09:17:13;;;;;;;27.27;18.80;;;;;;;-0.70;100.00;151192.66;5074018;28;20472;-77
2024/01/19 09:19:42;;;;;;;31.30;19.60;;;;;;;-0.74;100.00;151182.38;5071520;28;20460;-77
2024/01/19 09:22:08;;;;;;;29.80;20.97;;;;;;;-0.89;100.00;151145.22;5075079;28;20454;-77
2024/01/19 09:24:35;;;;;;;27.10;17.87;;;;;;;-0.91;100.00;151138.78;5079727;28;20452;-77
2024/01/19 09:27:01;;;;;;;30.93;19.70;;;;;;;-0.89;100.00;151143.91;5073282;28;20794;-78
2024/01/19 09:29:28;;;;;;;30.17;19.23;;;;;;;-0.87;100.00;151149.03;5073629;28;20540;-78
2024/01/19 09:31:55;;;;;;;29.00;18.57;;;;;;;-0.94;100.00;151132.38;5075329;28;20530;-77
2024/01/19 09:34:23;;;;;;;29.97;17.50;;;;;;;-0.95;100.00;151128.50;5075347;28;20540;-78
2024/01/19 09:36:49;;;;;;;28.80;18.17;;;;;;;-0.88;100.00;151146.50;5078132;28;20484;-78
2024/01/19 09:39:15;;;;;;;29.83;19.10;;;;;;;-0.88;100.00;151147.78;5076054;28;20452;-78
2024/01/19 09:41:47;;;;;;;32.10;19.73;;;;;;;-0.90;100.00;151141.38;5076993;28;20488;-78
2024/01/19 09:44:16;;;;;;;30.00;20.17;;;;;;;-0.89;100.00;151143.91;5074473;28;20857;-78
2024/01/19 09:47:04;;;;;;;30.07;19.07;;;;;;;-0.92;100.00;151136.22;5076094;28;20480;-77
2024/01/19 09:49:39;;;;;;;28.20;18.37;;;;;;;-0.94;100.00;151132.38;5076453;28;20485;-78
2024/01/19 09:52:20;;;;;;;24.07;17.80;;;;;;;-0.87;100.00;151149.03;5076076;28;20476;-78
2024/01/19 09:54:46;;;;;;;28.10;18.00;;;;;;;-0.83;100.00;151159.31;5073889;28;20580;-78
2024/01/19 09:57:13;;;;;;;28.93;19.90;;;;;;;-0.77;100.00;151174.72;5076439;28;20466;-77
2024/01/19 09:59:43;;;;;;;27.50;18.03;;;;;;;-0.69;100.00;151195.25;5076654;28;20452;-77
2024/01/19 10:02:10;;;;;;;33.60;19.70;;;;;;;-0.56;100.00;151228.59;5075528;28;20974;-77
2024/01/19 10:04:38;;;;;;;31.50;19.70;;;;;;;-0.52;100.00;151238.81;5076358;28;20887;-77
2024/01/19 10:07:05;;;;;;;29.63;18.70;;;;;;;-0.48;100.00;151249.09;5075490;28;20452;-77
2024/01/19 10:09:32;;;;;;;25.77;17.67;;;;;;;-0.42;100.00;151264.47;5075155;28;20510;-77
2024/01/19 10:11:59;;;;;;;28.07;18.97;;;;;;;-0.45;100.00;151256.75;5077252;28;20437;-78
2024/01/19 10:14:26;;;;;;;28.40;18.10;;;;;;;-0.44;100.00;151259.34;5074093;28;21536;-78
2024/01/19 10:16:52;;;;;;;22.10;15.50;;;;;;;-0.34;100.00;151284.97;5073982;28;20512;-77
2024/01/19 10:19:21;;;;;;;27.50;17.73;;;;;;;-0.23;100.00;151313.22;5074819;28;20462;-78
2024/01/19 10:21:50;;;;;;;34.10;18.90;;;;;;;-0.21;100.00;151317.03;5076982;28;20839;-75
2024/01/19 10:24:19;;;;;;;27.87;19.00;;;;;;;-0.23;100.00;151313.22;5076176;28;20460;-75
2024/01/19 10:26:46;;;;;;;24.50;17.47;;;;;;;-0.22;100.00;151314.50;5075163;28;20437;-76
2024/01/19 10:29:14;;;;;;;22.77;16.60;;;;;;;-0.16;100.00;151331.16;5072949;28;20481;-75
2024/01/19 10:31:41;;;;;;;26.43;17.40;;;;;;;-0.06;100.00;151356.88;5074605;28;20448;-76
2024/01/19 10:34:17;;;;;;;26.90;17.70;;;;;;;-0.03;100.00;151364.53;5074175;28;20592;-76
2024/01/19 10:36:44;;;;;;;23.13;16.03;;;;;;;0.05;100.00;151382.50;5073866;28;20504;-76
2024/01/19 10:39:19;;;;;;;22.27;14.17;;;;;;;0.05;100.00;151382.50;5076297;28;20541;-76
2024/01/19 10:41:46;;;;;;;25.87;17.17;;;;;;;0.10;100.00;151395.34;5075741;28;20518;-76
2024/01/19 10:44:14;;;;;;;23.60;16.10;;;;;;;0.14;100.00;151405.59;5074606;28;20457;-76
2024/01/19 10:46:41;;;;;;;20.77;14.93;;;;;;;0.15;100.00;151408.19;5073705;28;20526;-76
2024/01/19 10:49:08;;;;;;;20.53;13.90;;;;;;;0.15;100.00;151408.19;5075199;28;20530;-76
2024/01/19 10:51:36;;;;;;;23.10;14.70;;;;;;;0.15;100.00;151409.47;5058033;28;20456;-76
2024/01/19 10:54:03;;;;;;;23.00;15.53;;;;;;;0.17;100.00;151413.28;5073393;28;20488;-76
2024/01/19 10:56:31;;;;;;;22.40;15.27;;;;;;;0.15;100.00;151408.19;5074262;28;20838;-76
2024/01/19 10:59:10;;;;;;;22.30;13.57;;;;;;;0.18;100.00;151415.88;5072457;28;20457;-76
2024/01/19 11:01:36;;;;;;;17.30;12.70;;;;;;;0.23;100.00;151428.72;5077463;28;20447;-76
2024/01/19 11:04:04;;;;;;;22.47;14.13;;;;;;;0.30;100.00;151446.66;5076669;28;20514;-76
2024/01/19 11:06:30;;;;;;;19.33;13.93;;;;;;;0.30;100.00;151446.66;5076497;28;20452;-77